Time;durP1;ratioP1;P1;durP2;ratioP2;P2;SDS_P1;SDS_P2;PMS_P1;PMS_P2;Temp;Humidity;BMP_temperature;BMP_pressure;BME280_temperature;BME280_humidity;BME280_pressure;Samples;Min_cycle;Max_cycle;Signal;HPM_P1;HPM_P2
2022/01/02 00:00:37;;;;;;;19.37;11.70;;;13.90;99.90;;;;;;5207671;28;20093;-35
2022/01/02 00:03:19;;;;;;;24.47;14.80;;;13.90;99.90;;;;;;5206732;28;20493;-32
2022/01/02 00:05:50;;;;;;;39.53;19.57;;;13.90;99.90;;;;;;5206604;28;20128;-32
2022/01/02 00:08:21;;;;;;;28.47;17.10;;;13.90;99.90;;;;;;5206351;28;20384;-33
2022/01/02 00:10:55;;;;;;;35.63;20.97;;;13.90;99.90;;;;;;5207250;28;20053;-29
2022/01/02 00:13:31;;;;;;;38.33;20.53;;;13.90;99.90;;;;;;5206379;28;20041;-34
2022/01/02 00:16:08;;;;;;;38.27;21.53;;;13.90;99.90;;;;;;5207622;28;20052;-30
2022/01/02 00:18:47;;;;;;;25.87;16.03;;;13.90;99.90;;;;;;5207314;28;20045;-33
2022/01/02 00:21:20;;;;;;;19.80;13.70;;;13.80;99.90;;;;;;5207741;28;20454;-29
2022/01/02 00:24:03;;;;;;;;;;;13.80;99.90;;;;;;5207840;28;20491;-30
2022/01/02 00:26:38;;;;;;;21.60;13.93;;;13.80;99.90;;;;;;5207737;28;20274;-30
2022/01/02 00:29:10;;;;;;;32.37;18.13;;;13.90;99.90;;;;;;5207188;28;20060;-32
2022/01/02 00:31:41;;;;;;;29.50;19.77;;;13.80;99.90;;;;;;5206447;28;20099;-33
2022/01/02 00:34:12;;;;;;;32.33;19.43;;;13.80;99.90;;;;;;5207453;28;20458;-33
2022/01/02 00:36:43;;;;;;;29.67;20.27;;;13.80;99.90;;;;;;5207173;28;20045;-38
2022/01/02 00:39:14;;;;;;;35.83;20.93;;;13.80;99.90;;;;;;5206940;28;20065;-34
2022/01/02 00:41:55;;;;;;;37.80;22.77;;;13.70;99.90;;;;;;5207372;28;20096;-32
2022/01/02 00:44:52;;;;;;;31.90;21.30;;;13.80;99.90;;;;;;5206767;28;20037;-31
2022/01/02 00:48:00;;;;;;;28.83;18.43;;;13.80;99.90;;;;;;5124540;29;20055;-35
2022/01/02 00:50:37;;;;;;;27.27;17.47;;;13.80;99.90;;;;;;5108525;29;20058;-33
2022/01/02 00:53:09;;;;;;;27.27;18.63;;;13.70;99.90;;;;;;5124826;29;20070;-33
2022/01/02 00:55:40;;;;;;;37.33;21.70;;;13.70;99.90;;;;;;5108454;29;20537;-33
2022/01/02 00:58:16;;;;;;;34.67;20.50;;;13.70;99.90;;;;;;5124030;29;20126;-33
2022/01/02 01:00:49;;;;;;;31.40;19.50;;;13.70;99.90;;;;;;5123906;29;20121;-38
2022/01/02 01:03:26;;;;;;;27.63;17.07;;;13.70;99.90;;;;;;5124056;29;20043;-33
2022/01/02 01:05:59;;;;;;;27.00;18.00;;;13.70;99.90;;;;;;5108187;29;20529;-36
2022/01/02 01:08:33;;;;;;;25.27;18.67;;;13.70;99.90;;;;;;5092437;29;20050;-32
2022/01/02 01:11:05;;;;;;;30.83;21.10;;;13.70;99.90;;;;;;5123707;29;20472;-30
2022/01/02 01:13:36;;;;;;;33.47;21.20;;;13.60;99.90;;;;;;5123831;29;20142;-36
2022/01/02 01:16:07;;;;;;;29.70;19.67;;;13.60;99.90;;;;;;5123872;28;20091;-32
2022/01/02 01:18:37;;;;;;;25.17;18.03;;;13.60;99.90;;;;;;5126836;29;20059;-33
2022/01/02 01:21:09;;;;;;;20.47;15.97;;;13.60;99.90;;;;;;5127718;29;20075;-30
2022/01/02 01:23:41;;;;;;;21.67;16.00;;;13.60;99.90;;;;;;5146712;28;20081;-33
2022/01/02 01:26:15;;;;;;;18.57;14.60;;;13.60;99.90;;;;;;5210750;28;20037;-37
2022/01/02 01:28:47;;;;;;;22.90;15.40;;;13.60;99.90;;;;;;5211078;28;20049;-32
2022/01/02 01:31:18;;;;;;;20.03;14.67;;;13.60;99.90;;;;;;5210612;28;20498;-30
2022/01/02 01:33:49;;;;;;;19.17;13.73;;;13.60;99.90;;;;;;5192083;28;20096;-32
2022/01/02 01:36:20;;;;;;;20.93;16.23;;;13.60;99.90;;;;;;5210431;28;20053;-32
2022/01/02 01:38:51;;;;;;;17.10;14.07;;;13.60;99.90;;;;;;5210265;28;20045;-38
2022/01/02 01:41:30;;;;;;;17.67;12.67;;;13.60;99.90;;;;;;5210315;28;20483;-32
2022/01/02 01:44:21;;;;;;;15.90;12.40;;;13.60;99.90;;;;;;5209133;28;20038;-35
2022/01/02 01:46:55;;;;;;;20.07;14.23;;;13.60;99.90;;;;;;5210544;28;20095;-35
2022/01/02 01:49:27;;;;;;;14.93;12.82;;;13.60;99.90;;;;;;5210529;28;20426;-32
2022/01/02 01:51:58;;;;;;;15.77;12.30;;;13.50;99.90;;;;;;5210246;28;20072;-30
2022/01/02 01:54:29;;;;;;;15.43;12.63;;;13.60;99.90;;;;;;5210007;28;20061;-32
2022/01/02 01:57:01;;;;;;;17.10;14.03;;;13.60;99.90;;;;;;5209741;28;20064;-36
2022/01/02 01:59:32;;;;;;;15.93;13.07;;;13.60;99.90;;;;;;5192325;28;20050;-36
2022/01/02 02:02:03;;;;;;;16.00;13.43;;;13.50;99.90;;;;;;5210211;28;20065;-31
2022/01/02 02:04:34;;;;;;;14.97;13.37;;;13.60;99.90;;;;;;5210283;28;20073;-34
2022/01/02 02:07:05;;;;;;;15.43;13.43;;;13.60;99.90;;;;;;5209789;28;20532;-30
2022/01/02 02:12:27;;;;;;;18.30;14.70;;;13.60;99.90;;;;;;5133885;28;20082;-35
2022/01/02 02:14:58;;;;;;;17.20;15.03;;;13.50;99.90;;;;;;5146717;28;20090;-33
2022/01/02 02:17:29;;;;;;;16.83;13.47;;;13.60;99.90;;;;;;5146631;28;20080;-33
2022/01/02 02:20:15;;;;;;;17.20;14.27;;;13.50;99.90;;;;;;5146247;28;20113;-33
2022/01/02 02:22:48;;;;;;;17.33;14.33;;;13.50;99.90;;;;;;5146253;28;20093;-34
2022/01/02 02:25:21;;;;;;;17.30;14.17;;;13.50;99.90;;;;;;5146496;28;20058;-34
2022/01/02 02:27:57;;;;;;;19.50;15.48;;;13.50;99.90;;;;;;5145988;28;20444;-32
2022/01/02 02:30:29;;;;;;;21.57;15.27;;;13.50;99.90;;;;;;5146780;28;20137;-36
2022/01/02 02:33:01;;;;;;;18.35;14.80;;;13.50;99.90;;;;;;5146229;28;20055;-32
2022/01/02 02:35:33;;;;;;;20.07;14.83;;;13.60;99.90;;;;;;5146320;28;20532;-34
2022/01/02 02:38:06;;;;;;;21.97;16.00;;;13.60;99.90;;;;;;5146127;28;20175;-33
2022/01/02 02:40:37;;;;;;;20.23;16.03;;;13.50;99.90;;;;;;5146264;28;20058;-35
2022/01/02 02:49:01;;;;;;;19.50;15.03;;;13.60;99.90;;;;;;5159815;28;20507;-36
2022/01/02 02:54:25;;;;;;;20.13;15.93;;;13.50;99.90;;;;;;5209208;28;20121;-34
2022/01/02 02:56:57;;;;;;;19.38;15.25;;;13.50;99.90;;;;;;5208494;28;20053;-33
2022/01/02 02:59:30;;;;;;;21.02;15.10;;;13.50;99.90;;;;;;5191978;28;20053;-34
2022/01/02 03:02:01;;;;;;;21.42;14.88;;;13.50;99.90;;;;;;5209307;28;20049;-34
2022/01/02 03:04:32;;;;;;;21.13;16.27;;;13.50;99.90;;;;;;5208648;28;20455;-33
2022/01/02 03:07:03;;;;;;;26.00;17.57;;;13.60;99.90;;;;;;5208747;28;20127;-29
2022/01/02 03:09:41;;;;;;;23.93;17.03;;;13.60;99.90;;;;;;5208546;28;20049;-35
2022/01/02 03:12:12;;;;;;;19.13;14.80;;;13.50;99.90;;;;;;5209040;28;20056;-34
2022/01/02 03:14:43;;;;;;;21.37;15.60;;;13.50;99.90;;;;;;5207214;28;20065;-35
2022/01/02 03:17:14;;;;;;;18.10;15.03;;;13.50;99.90;;;;;;5208444;28;20100;-34
2022/01/02 03:19:45;;;;;;;22.23;15.67;;;13.50;99.90;;;;;;5208344;28;20073;-33
2022/01/02 03:22:16;;;;;;;24.00;14.50;;;13.50;99.90;;;;;;5208659;28;20095;-32
2022/01/02 03:24:49;;;;;;;23.23;16.27;;;13.50;99.90;;;;;;5208771;28;20163;-32
2022/01/02 03:27:20;;;;;;;22.85;15.70;;;13.50;99.90;;;;;;5208377;28;20037;-35
2022/01/02 03:29:51;;;;;;;21.40;14.57;;;13.50;99.90;;;;;;5208595;28;20045;-38
2022/01/02 03:32:22;;;;;;;24.73;16.87;;;13.50;99.90;;;;;;5208214;28;20065;-34
2022/01/02 03:34:53;;;;;;;22.37;15.47;;;13.50;99.90;;;;;;5208205;28;20047;-30
2022/01/02 03:37:28;;;;;;;20.03;15.03;;;13.50;99.90;;;;;;5207375;28;20045;-36
2022/01/02 03:40:05;;;;;;;22.40;14.77;;;13.50;99.90;;;;;;5207689;28;20395;-29
2022/01/02 03:42:36;;;;;;;22.13;16.07;;;13.50;99.90;;;;;;5208343;28;20045;-35
2022/01/02 03:45:08;;;;;;;21.90;14.83;;;13.50;99.90;;;;;;5207764;28;20099;-32
2022/01/02 03:47:39;;;;;;;19.97;14.73;;;13.50;99.90;;;;;;5206708;28;20045;-30
2022/01/02 03:50:10;;;;;;;21.77;14.70;;;13.50;99.90;;;;;;5208031;28;20364;-33
2022/01/02 03:52:41;;;;;;;24.33;14.23;;;13.50;99.90;;;;;;5208196;28;20055;-35
2022/01/02 03:55:12;;;;;;;20.60;15.17;;;13.50;99.90;;;;;;5207682;28;20053;-37
2022/01/02 03:57:42;;;;;;;23.10;15.97;;;13.50;99.90;;;;;;5207148;28;20052;-34
2022/01/02 04:00:14;;;;;;;21.27;16.07;;;13.50;99.90;;;;;;5206246;28;20111;-29
2022/01/02 04:02:45;;;;;;;21.60;15.80;;;13.50;99.90;;;;;;5207521;28;20046;-39
2022/01/02 04:05:16;;;;;;;24.00;16.27;;;13.50;99.90;;;;;;5207524;28;20172;-33
2022/01/02 04:07:47;;;;;;;22.13;16.70;;;13.50;99.90;;;;;;5207509;28;20132;-30
2022/01/02 04:10:18;;;;;;;23.70;17.63;;;13.50;99.90;;;;;;5207156;28;20084;-34
2022/01/02 04:12:49;;;;;;;23.93;17.60;;;13.50;99.90;;;;;;5207438;28;20055;-34
2022/01/02 04:15:20;;;;;;;24.30;18.13;;;13.40;99.90;;;;;;5207448;28;20042;-30
2022/01/02 04:17:51;;;;;;;27.10;19.87;;;13.50;99.90;;;;;;5207400;28;20380;-30
2022/01/02 04:20:22;;;;;;;23.63;18.73;;;13.50;99.90;;;;;;5207245;28;20048;-37
2022/01/02 04:22:53;;;;;;;30.03;22.10;;;13.50;99.90;;;;;;5207815;28;20430;-35
2022/01/02 04:25:24;;;;;;;27.47;21.47;;;13.50;99.90;;;;;;5207292;28;20044;-35
2022/01/02 04:27:55;;;;;;;23.77;18.00;;;13.50;99.90;;;;;;5206199;28;20041;-35
2022/01/02 04:30:26;;;;;;;23.43;17.57;;;13.50;99.90;;;;;;5207476;28;20072;-32
2022/01/02 04:32:57;;;;;;;23.17;17.47;;;13.50;99.90;;;;;;5207185;28;20046;-34
2022/01/02 04:35:28;;;;;;;23.67;17.60;;;13.50;99.90;;;;;;5207263;28;20077;-33
2022/01/02 04:37:59;;;;;;;26.93;18.13;;;13.50;99.90;;;;;;5207501;28;20069;-32
2022/01/02 04:40:30;;;;;;;24.83;17.83;;;13.50;99.90;;;;;;5207263;28;20073;-32
2022/01/02 04:43:01;;;;;;;24.83;17.43;;;13.50;99.90;;;;;;5207115;28;20088;-32
2022/01/02 04:45:32;;;;;;;24.77;16.50;;;13.50;99.90;;;;;;5206850;28;20458;-33
2022/01/02 04:48:03;;;;;;;25.17;17.60;;;13.50;99.90;;;;;;5206908;28;20049;-35
2022/01/02 04:50:34;;;;;;;27.13;18.57;;;13.50;99.90;;;;;;5207560;28;20049;-31
2022/01/02 04:53:05;;;;;;;32.90;24.17;;;13.50;99.90;;;;;;5211330;28;20479;-37
2022/01/02 04:55:36;;;;;;;33.03;24.57;;;13.50;99.90;;;;;;5211225;28;20041;-30
2022/01/02 04:58:07;;;;;;;33.87;22.43;;;13.50;99.90;;;;;;5211452;28;20439;-36
2022/01/02 05:00:38;;;;;;;27.90;20.80;;;13.50;99.90;;;;;;5211550;28;20180;-32
2022/01/02 05:03:09;;;;;;;28.07;19.10;;;13.50;99.90;;;;;;5211408;28;20467;-33
2022/01/02 05:05:40;;;;;;;26.67;19.60;;;13.50;99.90;;;;;;5224801;28;20461;-32
2022/01/02 05:08:11;;;;;;;34.20;28.57;;;13.50;99.90;;;;;;5230765;28;20040;-33
2022/01/02 05:10:42;;;;;;;32.37;26.73;;;13.50;99.90;;;;;;5229771;28;20501;-31
2022/01/02 05:13:13;;;;;;;28.43;23.37;;;13.60;99.90;;;;;;5229748;28;20066;-36
2022/01/02 05:15:44;;;;;;;30.13;22.27;;;13.60;99.90;;;;;;5230758;28;20057;-29
2022/01/02 05:18:15;;;;;;;27.67;22.27;;;13.70;99.90;;;;;;5230593;28;20067;-35
2022/01/02 05:20:46;;;;;;;27.73;22.53;;;13.70;99.90;;;;;;5230439;28;20067;-33
2022/01/02 05:23:19;;;;;;;31.13;23.47;;;13.70;99.90;;;;;;5231192;28;20509;-32
2022/01/02 05:25:51;;;;;;;28.85;22.60;;;13.70;99.90;;;;;;5231326;28;20095;-36
2022/01/02 05:28:23;;;;;;;31.95;25.67;;;13.80;99.90;;;;;;5226925;28;20136;-31
2022/01/02 05:30:55;;;;;;;33.50;26.53;;;13.90;99.90;;;;;;5213953;28;20530;-37
2022/01/02 05:33:25;;;;;;;33.70;26.03;;;13.90;99.90;;;;;;5209336;28;20144;-32
2022/01/02 05:35:57;;;;;;;33.13;25.03;;;13.90;99.90;;;;;;5219235;28;20469;-32
2022/01/02 05:38:27;;;;;;;33.20;23.57;;;14.00;99.90;;;;;;5192489;28;20072;-33
2022/01/02 05:40:59;;;;;;;30.83;22.40;;;13.90;99.90;;;;;;5228663;28;20392;-33
2022/01/02 05:43:30;;;;;;;31.57;24.93;;;14.00;99.90;;;;;;5228363;28;20045;-30
2022/01/02 05:46:05;;;;;;;33.27;24.63;;;13.90;99.90;;;;;;5227409;28;20045;-34
2022/01/02 05:48:36;;;;;;;32.90;23.90;;;13.90;99.90;;;;;;5228560;28;20120;-37
2022/01/02 05:51:08;;;;;;;33.73;24.83;;;13.90;99.90;;;;;;5228553;28;20478;-31
2022/01/02 05:53:38;;;;;;;35.30;25.53;;;13.90;99.90;;;;;;5227120;28;20128;-31
2022/01/02 05:56:09;;;;;;;33.63;25.93;;;13.90;99.90;;;;;;5228155;28;20123;-35
2022/01/02 05:58:40;;;;;;;35.37;28.17;;;13.90;99.90;;;;;;5228189;28;20447;-34
2022/01/02 06:01:11;;;;;;;37.63;29.07;;;13.90;99.90;;;;;;5227183;28;20063;-34
2022/01/02 06:03:43;;;;;;;33.67;25.83;;;13.90;99.90;;;;;;5206962;28;20049;-30
2022/01/02 06:06:14;;;;;;;33.40;25.17;;;13.80;99.90;;;;;;5207434;28;20049;-38
2022/01/02 06:08:45;;;;;;;35.37;26.10;;;13.80;99.90;;;;;;5206437;28;20518;-33
2022/01/02 06:11:16;;;;;;;35.23;25.20;;;13.80;99.90;;;;;;5223275;28;20139;-37
2022/01/02 06:13:47;;;;;;;32.43;23.13;;;13.80;99.90;;;;;;5214605;28;20116;-32
2022/01/02 06:16:18;;;;;;;37.87;25.63;;;13.80;99.90;;;;;;5210344;28;20057;-34
2022/01/02 06:18:51;;;;;;;38.30;27.30;;;13.80;99.90;;;;;;5212589;28;20053;-37
2022/01/02 06:21:22;;;;;;;34.42;26.95;;;13.80;99.90;;;;;;5207759;28;20067;-36
2022/01/02 06:23:53;;;;;;;34.50;27.43;;;13.80;99.90;;;;;;5214075;28;20057;-31
2022/01/02 06:26:24;;;;;;;36.87;28.73;;;13.80;99.90;;;;;;5209795;28;20881;-34
2022/01/02 06:28:55;;;;;;;39.97;30.60;;;13.80;99.90;;;;;;5218497;28;20045;-32
2022/01/02 06:31:26;;;;;;;42.53;34.90;;;13.70;99.90;;;;;;5227136;28;20049;-34
2022/01/02 06:33:57;;;;;;;36.57;29.70;;;13.70;99.90;;;;;;5226087;28;20049;-33
2022/01/02 06:36:28;;;;;;;37.20;27.83;;;13.70;99.90;;;;;;5217881;28;20053;-32
2022/01/02 06:38:58;;;;;;;44.97;30.07;;;13.80;99.90;;;;;;5206142;28;20060;-35
2022/01/02 06:41:30;;;;;;;46.03;30.47;;;13.70;99.90;;;;;;5210181;28;20493;-30
2022/01/02 06:44:01;;;;;;;42.90;28.47;;;13.80;99.90;;;;;;5215264;28;20040;-29
2022/01/02 06:46:32;;;;;;;39.27;28.47;;;13.80;99.90;;;;;;5227373;28;20103;-29
2022/01/02 06:49:02;;;;;;;36.37;27.67;;;13.70;99.90;;;;;;5227159;28;20041;-37
2022/01/02 06:51:33;;;;;;;38.17;32.40;;;13.80;99.90;;;;;;5227030;28;20051;-38
2022/01/02 06:54:05;;;;;;;43.70;38.90;;;14.00;99.90;;;;;;5227249;28;20049;-29
2022/01/02 06:56:36;;;;;;;39.87;28.43;;;14.10;99.90;;;;;;5208974;28;20042;-31
2022/01/02 06:59:07;;;;;;;42.20;30.13;;;13.00;99.90;;;;;;5213082;28;20049;-32
2022/01/02 07:01:38;;;;;;;39.50;29.40;;;12.30;99.90;;;;;;5208570;28;20073;-32
2022/01/02 07:04:09;;;;;;;37.00;28.70;;;12.00;99.90;;;;;;5226748;28;20071;-28
2022/01/02 07:06:40;;;;;;;38.00;28.53;;;11.90;99.90;;;;;;5225358;28;20056;-33
2022/01/02 07:09:11;;;;;;;41.17;32.23;;;11.90;99.90;;;;;;5193108;28;20057;-32
2022/01/02 07:11:42;;;;;;;43.13;32.20;;;11.80;99.90;;;;;;5208576;28;20398;-35
2022/01/02 07:14:13;;;;;;;40.77;31.90;;;11.80;99.90;;;;;;5208663;28;20045;-33
2022/01/02 07:16:44;;;;;;;39.67;31.17;;;11.70;99.90;;;;;;5208141;28;20057;-28
2022/01/02 07:19:15;;;;;;;42.37;31.40;;;11.70;99.90;;;;;;5227805;28;20037;-31
2022/01/02 07:21:46;;;;;;;43.07;32.10;;;11.70;99.90;;;;;;5227367;28;20058;-32
2022/01/02 07:24:17;;;;;;;41.10;30.83;;;11.70;99.90;;;;;;5227141;28;20049;-30
2022/01/02 07:26:48;;;;;;;39.77;31.30;;;11.70;99.90;;;;;;5228830;28;20077;-28
2022/01/02 07:29:19;;;;;;;39.43;30.27;;;11.80;99.90;;;;;;5210462;28;20182;-31
2022/01/02 07:31:50;;;;;;;42.97;31.57;;;11.80;99.90;;;;;;5228770;28;20036;-31
2022/01/02 07:34:21;;;;;;;40.87;31.67;;;11.90;99.90;;;;;;5228526;28;20501;-29
2022/01/02 07:36:52;;;;;;;38.83;30.90;;;11.90;99.90;;;;;;5228469;28;20075;-30
2022/01/02 07:39:23;;;;;;;40.33;30.27;;;12.00;99.90;;;;;;5228649;28;20072;-33
2022/01/02 07:41:54;;;;;;;43.57;33.37;;;12.00;99.90;;;;;;5228461;28;20138;-31
2022/01/02 07:44:25;;;;;;;41.47;31.13;;;12.00;99.90;;;;;;5227861;28;20084;-29
2022/01/02 07:46:56;;;;;;;40.93;31.07;;;11.90;99.90;;;;;;5227633;28;20155;-33
2022/01/02 07:49:27;;;;;;;40.70;30.30;;;11.90;99.90;;;;;;5210198;28;20119;-29
2022/01/02 07:51:58;;;;;;;38.97;31.23;;;11.90;99.90;;;;;;5228264;28;20052;-33
2022/01/02 07:54:29;;;;;;;41.73;31.70;;;11.90;99.90;;;;;;5228652;28;20045;-29
2022/01/02 07:57:00;;;;;;;46.33;34.70;;;11.80;99.90;;;;;;5228297;28;20150;-29
2022/01/02 07:59:31;;;;;;;42.83;32.47;;;11.70;99.90;;;;;;5229064;28;20375;-29
2022/01/02 08:02:02;;;;;;;44.03;33.27;;;11.70;99.90;;;;;;5228125;28;20398;-34
2022/01/02 08:04:33;;;;;;;43.53;33.63;;;11.70;99.90;;;;;;5228364;28;20049;-31
2022/01/02 08:07:04;;;;;;;42.43;33.87;;;11.70;99.90;;;;;;5225875;28;20120;-33
2022/01/02 08:09:35;;;;;;;41.97;30.87;;;11.80;99.90;;;;;;5225348;28;20135;-34
2022/01/02 08:12:06;;;;;;;42.23;32.70;;;11.70;99.90;;;;;;5226414;28;20041;-31
2022/01/02 08:14:37;;;;;;;43.47;33.13;;;11.70;99.90;;;;;;5223876;28;20045;-29
2022/01/02 08:17:08;;;;;;;43.93;34.53;;;11.70;99.90;;;;;;5225209;28;20076;-36
2022/01/02 08:19:39;;;;;;;44.23;33.27;;;11.60;99.90;;;;;;5226406;28;20061;-32
2022/01/02 08:22:10;;;;;;;39.53;31.10;;;11.60;99.90;;;;;;5227006;28;20048;-34
2022/01/02 08:24:41;;;;;;;40.53;32.10;;;11.60;99.90;;;;;;5227253;28;20410;-32
2022/01/02 08:27:12;;;;;;;41.27;32.40;;;11.60;99.90;;;;;;5226959;28;20514;-34
2022/01/02 08:29:43;;;;;;;38.53;32.50;;;11.60;99.90;;;;;;5226782;28;20072;-30
2022/01/02 08:32:14;;;;;;;40.07;35.67;;;11.50;99.90;;;;;;5227846;28;20463;-29
2022/01/02 08:34:45;;;;;;;36.47;30.10;;;11.50;99.90;;;;;;5228092;28;20070;-29
2022/01/02 08:37:16;;;;;;;38.27;29.00;;;11.50;99.90;;;;;;5227756;28;20049;-32
2022/01/02 08:39:47;;;;;;;38.70;30.90;;;11.50;99.90;;;;;;5227325;28;20044;-35
2022/01/02 08:42:18;;;;;;;40.87;31.03;;;11.50;99.90;;;;;;5227512;28;20375;-31
2022/01/02 08:44:48;;;;;;;40.00;31.03;;;11.40;99.90;;;;;;5227165;28;20140;-30
2022/01/02 08:47:20;;;;;;;35.40;29.33;;;11.40;99.90;;;;;;5226550;28;20380;-30
2022/01/02 08:49:50;;;;;;;37.70;29.60;;;11.40;99.90;;;;;;5227915;28;20119;-34
2022/01/02 08:52:22;;;;;;;35.67;29.77;;;11.40;99.90;;;;;;5227827;28;20059;-31
2022/01/02 08:54:53;;;;;;;39.07;29.50;;;11.40;99.90;;;;;;5227979;28;20045;-32
2022/01/02 08:57:24;;;;;;;35.97;27.67;;;11.60;99.90;;;;;;5227639;28;20040;-29
2022/01/02 08:59:55;;;;;;;38.90;28.60;;;11.80;99.90;;;;;;5227591;28;20571;-31
2022/01/02 09:02:26;;;;;;;39.63;29.80;;;12.10;99.90;;;;;;5227503;28;20072;-30
2022/01/02 09:04:57;;;;;;;38.43;28.87;;;12.40;99.90;;;;;;5226306;28;20045;-30
2022/01/02 09:07:28;;;;;;;32.97;25.37;;;12.60;99.90;;;;;;5227579;28;20406;-32
2022/01/02 09:09:59;;;;;;;39.10;30.63;;;12.80;99.90;;;;;;5228083;28;20052;-33
2022/01/02 09:12:30;;;;;;;64.80;45.20;;;12.90;99.90;;;;;;5227235;28;20053;-31
2022/01/02 09:15:04;;;;;;;83.20;55.73;;;13.00;99.90;;;;;;5226754;28;20048;-33
2022/01/02 09:17:38;;;;;;;74.10;52.33;;;13.20;99.90;;;;;;5193941;28;20067;-37
2022/01/02 09:20:09;;;;;;;61.47;41.40;;;13.30;99.90;;;;;;5227504;28;20057;-33
2022/01/02 09:22:40;;;;;;;46.43;34.93;;;13.40;99.90;;;;;;5227322;28;20048;-33
2022/01/02 09:25:11;;;;;;;48.00;35.73;;;13.40;99.90;;;;;;5227628;28;20052;-32
2022/01/02 09:27:44;;;;;;;35.80;28.00;;;13.50;99.90;;;;;;5227109;28;20120;-30
2022/01/02 09:30:15;;;;;;;32.33;25.05;;;13.60;99.90;;;;;;5209683;28;20052;-33
2022/01/02 09:32:47;;;;;;;31.57;23.80;;;13.60;99.90;;;;;;5227098;28;20077;-31
2022/01/02 09:35:17;;;;;;;30.10;22.40;;;13.60;99.90;;;;;;5227823;28;20052;-35
2022/01/02 09:37:50;;;;;;;36.37;27.83;;;13.70;99.90;;;;;;5227770;28;20049;-32
2022/01/02 09:40:22;;;;;;;33.13;26.08;;;12.80;99.90;;;;;;5231087;28;20043;-33
2022/01/02 09:42:57;;;;;;;36.63;29.30;;;12.20;99.90;;;;;;5214492;28;20083;-29
2022/01/02 09:45:28;;;;;;;43.53;38.77;;;11.90;99.90;;;;;;5208018;28;20056;-33
2022/01/02 09:48:00;;;;;;;33.57;29.20;;;11.80;99.90;;;;;;5208139;28;20044;-31
2022/01/02 09:50:31;;;;;;;32.73;27.93;;;11.70;99.90;;;;;;5206878;28;20052;-34
2022/01/02 09:53:03;;;;;;;42.07;33.00;;;11.70;99.90;;;;;;5206624;28;20041;-38
2022/01/02 09:55:34;;;;;;;39.50;30.13;;;11.60;99.90;;;;;;5207899;28;20064;-33
2022/01/02 09:58:11;;;;;;;41.87;28.80;;;11.60;99.90;;;;;;5207663;28;20446;-33
2022/01/02 10:00:46;;;;;;;47.13;32.50;;;11.60;99.90;;;;;;5207970;28;20091;-35
2022/01/02 10:03:18;;;;;;;43.13;31.53;;;11.60;99.90;;;;;;5194515;28;20080;-30
2022/01/02 10:05:52;;;;;;;33.43;26.50;;;11.50;99.90;;;;;;5214401;28;20129;-30
2022/01/02 10:08:30;;;;;;;43.73;32.07;;;11.50;99.90;;;;;;5206357;28;20041;-32
2022/01/02 10:11:07;;;;;;;36.87;29.80;;;11.50;99.90;;;;;;5216228;28;20048;-32
2022/01/02 10:13:42;;;;;;;33.23;26.43;;;11.50;99.90;;;;;;5224688;28;20111;-32
2022/01/02 10:16:42;;;;;;;30.70;25.70;;;11.50;99.90;;;;;;5223858;28;20072;-30
2022/01/02 10:19:17;;;;;;;45.03;33.03;;;11.50;99.90;;;;;;5217979;28;20075;-29
2022/01/02 10:22:01;;;;;;;40.57;27.77;;;11.50;99.90;;;;;;5228390;28;20060;-31
2022/01/02 10:24:42;;;;;;;39.60;27.60;;;11.80;99.90;;;;;;5227007;28;20568;-35
2022/01/02 10:27:17;;;;;;;35.97;25.80;;;12.10;99.90;;;;;;5228070;28;20052;-31
2022/01/02 10:29:50;;;;;;;33.27;24.37;;;12.30;99.90;;;;;;5229792;28;20056;-30
2022/01/02 10:32:30;;;;;;;29.65;23.15;;;12.50;99.90;;;;;;5229866;28;20048;-32
2022/01/02 10:35:18;;;;;;;33.43;23.83;;;12.70;99.90;;;;;;5229114;28;20068;-34
2022/01/02 10:37:51;;;;;;;26.67;20.13;;;12.80;99.90;;;;;;5230197;28;20041;-33
2022/01/02 10:40:40;;;;;;;31.50;22.38;;;13.00;99.90;;;;;;5212325;28;20045;-34
2022/01/02 10:43:25;;;;;;;30.27;22.03;;;13.00;99.90;;;;;;5230188;28;20045;-34
2022/01/02 10:45:58;;;;;;;28.57;22.27;;;13.10;99.90;;;;;;5230088;28;20064;-34
2022/01/02 10:48:31;;;;;;;28.23;23.08;;;13.20;99.90;;;;;;5228229;28;20055;-29
2022/01/02 10:51:17;;;;;;;;;;;13.30;99.90;;;;;;5230241;28;20422;-29
2022/01/02 10:53:53;;;;;;;36.93;33.00;;;13.30;99.90;;;;;;5229528;28;19952;-34
2022/01/02 10:56:26;;;;;;;29.40;23.73;;;13.30;99.90;;;;;;5229314;28;20091;-31
2022/01/02 10:58:57;;;;;;;24.85;21.15;;;13.30;99.90;;;;;;5229802;28;20072;-34
2022/01/02 11:01:28;;;;;;;26.27;21.00;;;13.40;99.90;;;;;;5229163;28;20067;-36
2022/01/02 11:03:59;;;;;;;26.67;22.30;;;13.40;99.90;;;;;;5211555;28;20048;-32
2022/01/02 11:06:32;;;;;;;25.47;21.00;;;13.40;99.90;;;;;;5227980;28;20049;-35
2022/01/02 11:09:03;;;;;;;26.02;20.65;;;13.50;99.90;;;;;;5229284;28;20049;-38
2022/01/02 11:11:34;;;;;;;25.27;21.13;;;13.50;99.90;;;;;;5227507;28;20040;-31
2022/01/02 11:14:05;;;;;;;26.27;20.00;;;13.50;99.90;;;;;;5227188;28;20045;-32
2022/01/02 11:16:37;;;;;;;26.37;20.73;;;13.50;99.90;;;;;;5229163;28;20051;-30
2022/01/02 11:19:11;;;;;;;27.93;18.77;;;13.60;99.90;;;;;;5211073;28;20095;-30
2022/01/02 11:21:43;;;;;;;23.70;17.60;;;13.50;99.90;;;;;;5228727;28;20075;-31
2022/01/02 11:24:18;;;;;;;24.30;17.60;;;13.50;99.90;;;;;;5228081;28;20132;-31
2022/01/02 11:26:54;;;;;;;27.20;20.07;;;13.60;99.90;;;;;;5190979;28;20042;-38
2022/01/02 11:29:26;;;;;;;25.30;18.70;;;13.60;99.90;;;;;;5214743;28;20505;-35
2022/01/02 11:31:57;;;;;;;23.95;17.50;;;13.60;99.90;;;;;;5226763;28;20047;-32
2022/01/02 11:34:31;;;;;;;20.80;16.97;;;13.60;99.90;;;;;;5228926;28;20049;-35
2022/01/02 11:37:12;;;;;;;24.00;18.60;;;13.60;99.90;;;;;;5228211;28;20061;-31
2022/01/02 11:39:59;;;;;;;22.93;17.90;;;13.60;99.90;;;;;;5227896;28;20045;-35
2022/01/02 11:42:41;;;;;;;23.67;17.67;;;13.70;99.90;;;;;;5228334;28;20045;-31
2022/01/02 11:45:24;;;;;;;23.57;16.50;;;13.70;99.90;;;;;;5228610;28;20053;-30
2022/01/02 11:47:55;;;;;;;22.08;16.00;;;13.70;99.90;;;;;;5227805;28;20049;-32
2022/01/02 11:50:30;;;;;;;22.57;16.30;;;13.70;99.90;;;;;;5209279;28;20075;-33
2022/01/02 11:53:13;;;;;;;17.90;15.93;;;13.80;99.90;;;;;;5225688;28;20041;-30
2022/01/02 11:55:44;;;;;;;23.00;17.75;;;13.70;99.90;;;;;;5225711;28;20040;-33
2022/01/02 11:58:50;;;;;;;23.83;17.13;;;13.70;99.90;;;;;;5226615;28;20049;-35
2022/01/02 12:01:46;;;;;;;19.80;14.97;;;13.60;99.90;;;;;;5146153;28;20075;-31
2022/01/02 12:04:18;;;;;;;19.10;14.47;;;13.60;99.90;;;;;;5141621;28;20047;-35
2022/01/02 12:06:52;;;;;;;17.80;14.37;;;13.60;99.90;;;;;;5144498;28;20065;-33
2022/01/02 12:09:36;;;;;;;19.73;14.63;;;13.60;99.90;;;;;;5128549;28;20066;-35
2022/01/02 12:12:07;;;;;;;17.70;13.57;;;13.60;99.90;;;;;;5143867;28;20537;-33
2022/01/02 12:14:51;;;;;;;18.83;14.93;;;13.60;99.90;;;;;;5141609;28;20063;-33
2022/01/02 12:17:25;;;;;;;20.30;15.57;;;13.60;99.90;;;;;;5112528;28;20058;-32
2022/01/02 12:20:00;;;;;;;20.17;16.20;;;13.60;99.90;;;;;;5128074;28;20054;-32
2022/01/02 12:22:45;;;;;;;21.33;15.57;;;13.60;99.90;;;;;;5144010;28;20464;-37
2022/01/02 12:25:18;;;;;;;21.67;16.80;;;13.60;99.90;;;;;;5128478;28;20042;-29
2022/01/02 12:27:55;;;;;;;21.07;16.00;;;13.60;99.90;;;;;;5144216;28;20046;-34
2022/01/02 12:30:26;;;;;;;18.63;15.07;;;13.60;99.90;;;;;;5144382;28;20055;-35
2022/01/02 12:32:57;;;;;;;25.47;18.67;;;13.60;99.90;;;;;;5127994;28;20528;-33
2022/01/02 12:35:37;;;;;;;25.50;20.57;;;13.60;99.90;;;;;;5144142;28;20061;-29
2022/01/02 12:38:09;;;;;;;21.80;16.57;;;13.70;99.90;;;;;;5227788;28;20094;-28
2022/01/02 12:40:40;;;;;;;26.03;18.20;;;13.60;99.90;;;;;;5227694;28;20072;-29
2022/01/02 12:43:11;;;;;;;24.40;17.83;;;13.60;99.90;;;;;;5226975;28;20112;-32
2022/01/02 12:45:42;;;;;;;21.07;16.47;;;13.60;99.90;;;;;;5227480;28;20045;-35
2022/01/02 12:48:13;;;;;;;27.03;20.07;;;13.60;99.90;;;;;;5227599;28;20072;-31
2022/01/02 12:50:44;;;;;;;27.33;18.23;;;13.60;99.90;;;;;;5226289;28;20100;-34
2022/01/02 12:53:23;;;;;;;25.30;15.87;;;13.60;99.90;;;;;;5227862;28;20120;-30
2022/01/02 12:55:58;;;;;;;18.70;13.23;;;13.50;99.90;;;;;;5227823;28;20048;-33
2022/01/02 12:58:30;;;;;;;22.17;14.80;;;13.50;99.90;;;;;;5227606;28;20052;-30
2022/01/02 13:01:05;;;;;;;27.08;18.05;;;13.60;99.90;;;;;;5226537;28;20091;-32
2022/01/02 13:03:36;;;;;;;19.87;15.50;;;13.60;99.90;;;;;;5226389;28;20048;-33
2022/01/02 13:06:07;;;;;;;24.90;17.43;;;13.50;99.90;;;;;;5227226;28;20119;-33
2022/01/02 13:08:38;;;;;;;23.30;15.47;;;13.50;99.90;;;;;;5227535;28;20100;-30